sensor_id;sensor_type;location;lat;lon;timestamp;temperature;humidity
52575;DHT22;38468;48.114;-1.684;2023-08-01T00:00:41;18.20;87.90
52575;DHT22;38468;48.114;-1.684;2023-08-01T00:02:42;18.10;87.90
52575;DHT22;38468;48.114;-1.684;2023-08-01T00:04:42;18.00;87.80
52575;DHT22;38468;48.114;-1.684;2023-08-01T00:06:43;18.00;87.70
52575;DHT22;38468;48.114;-1.684;2023-08-01T00:08:44;18.00;87.70
52575;DHT22;38468;48.114;-1.684;2023-08-01T00:10:44;18.00;87.70
52575;DHT22;38468;48.114;-1.684;2023-08-01T00:12:45;18.00;87.70
52575;DHT22;38468;48.114;-1.684;2023-08-01T00:14:45;18.00;87.80
52575;DHT22;38468;48.114;-1.684;2023-08-01T00:16:46;18.00;87.80
52575;DHT22;38468;48.114;-1.684;2023-08-01T00:18:47;18.00;87.80
52575;DHT22;38468;48.114;-1.684;2023-08-01T00:20:47;18.00;87.70
52575;DHT22;38468;48.114;-1.684;2023-08-01T00:22:48;18.00;87.70
52575;DHT22;38468;48.114;-1.684;2023-08-01T00:24:48;18.00;87.70
52575;DHT22;38468;48.114;-1.684;2023-08-01T00:26:49;18.00;87.70
52575;DHT22;38468;48.114;-1.684;2023-08-01T00:28:50;18.00;87.70
52575;DHT22;38468;48.114;-1.684;2023-08-01T00:30:50;18.00;87.70
52575;DHT22;38468;48.114;-1.684;2023-08-01T00:32:51;17.90;87.80
52575;DHT22;38468;48.114;-1.684;2023-08-01T00:34:52;17.90;87.70
52575;DHT22;38468;48.114;-1.684;2023-08-01T00:36:53;18.00;87.70
52575;DHT22;38468;48.114;-1.684;2023-08-01T00:38:53;17.90;87.80
52575;DHT22;38468;48.114;-1.684;2023-08-01T00:40:54;18.00;87.80
52575;DHT22;38468;48.114;-1.684;2023-08-01T00:42:54;17.90;87.80
52575;DHT22;38468;48.114;-1.684;2023-08-01T00:44:57;17.70;87.40
52575;DHT22;38468;48.114;-1.684;2023-08-01T00:46:57;17.80;87.50
52575;DHT22;38468;48.114;-1.684;2023-08-01T00:48:58;17.80;87.60
52575;DHT22;38468;48.114;-1.684;2023-08-01T00:51:04;17.80;87.60
52575;DHT22;38468;48.114;-1.684;2023-08-01T00:53:05;17.80;87.60
52575;DHT22;38468;48.114;-1.684;2023-08-01T00:55:06;17.70;87.60
52575;DHT22;38468;48.114;-1.684;2023-08-01T00:57:08;17.80;87.60
52575;DHT22;38468;48.114;-1.684;2023-08-01T00:59:09;17.70;87.60
52575;DHT22;38468;48.114;-1.684;2023-08-01T01:01:10;17.70;87.50
52575;DHT22;38468;48.114;-1.684;2023-08-01T01:03:10;17.70;87.50
52575;DHT22;38468;48.114;-1.684;2023-08-01T01:05:12;17.70;87.50
52575;DHT22;38468;48.114;-1.684;2023-08-01T01:07:14;17.70;87.50
52575;DHT22;38468;48.114;-1.684;2023-08-01T01:09:17;17.60;87.60
52575;DHT22;38468;48.114;-1.684;2023-08-01T01:11:18;17.60;87.50
52575;DHT22;38468;48.114;-1.684;2023-08-01T01:13:19;17.60;87.50
52575;DHT22;38468;48.114;-1.684;2023-08-01T01:15:19;17.60;87.60
52575;DHT22;38468;48.114;-1.684;2023-08-01T01:17:20;17.60;87.60
52575;DHT22;38468;48.114;-1.684;2023-08-01T01:19:21;17.60;87.60
52575;DHT22;38468;48.114;-1.684;2023-08-01T01:24:19;17.50;87.50
52575;DHT22;38468;48.114;-1.684;2023-08-01T01:26:21;17.50;87.50
52575;DHT22;38468;48.114;-1.684;2023-08-01T01:28:22;17.50;87.40
52575;DHT22;38468;48.114;-1.684;2023-08-01T01:30:23;17.50;87.50
52575;DHT22;38468;48.114;-1.684;2023-08-01T01:32:25;17.50;87.50
52575;DHT22;38468;48.114;-1.684;2023-08-01T01:34:27;17.50;87.50
52575;DHT22;38468;48.114;-1.684;2023-08-01T01:36:28;17.50;87.50
52575;DHT22;38468;48.114;-1.684;2023-08-01T01:38:29;17.40;87.50
52575;DHT22;38468;48.114;-1.684;2023-08-01T01:40:31;17.40;87.40
52575;DHT22;38468;48.114;-1.684;2023-08-01T01:42:31;17.40;87.50
52575;DHT22;38468;48.114;-1.684;2023-08-01T01:44:32;17.40;87.40
52575;DHT22;38468;48.114;-1.684;2023-08-01T01:46:32;17.40;87.50
52575;DHT22;38468;48.114;-1.684;2023-08-01T01:48:33;17.50;87.50
52575;DHT22;38468;48.114;-1.684;2023-08-01T01:50:34;17.40;87.50
52575;DHT22;38468;48.114;-1.684;2023-08-01T01:52:34;17.40;87.40
52575;DHT22;38468;48.114;-1.684;2023-08-01T01:54:35;17.40;87.50
52575;DHT22;38468;48.114;-1.684;2023-08-01T01:56:36;17.30;87.40
52575;DHT22;38468;48.114;-1.684;2023-08-01T01:58:36;17.40;87.50
52575;DHT22;38468;48.114;-1.684;2023-08-01T02:00:37;17.30;87.50
52575;DHT22;38468;48.114;-1.684;2023-08-01T02:02:37;17.30;87.50
52575;DHT22;38468;48.114;-1.684;2023-08-01T02:04:38;17.20;87.50
52575;DHT22;38468;48.114;-1.684;2023-08-01T02:06:39;17.20;87.40
52575;DHT22;38468;48.114;-1.684;2023-08-01T02:08:39;17.20;87.40
52575;DHT22;38468;48.114;-1.684;2023-08-01T02:10:40;17.20;87.40
52575;DHT22;38468;48.114;-1.684;2023-08-01T02:12:40;17.20;87.30
52575;DHT22;38468;48.114;-1.684;2023-08-01T02:14:41;17.20;87.30
52575;DHT22;38468;48.114;-1.684;2023-08-01T02:16:42;17.20;87.30
52575;DHT22;38468;48.114;-1.684;2023-08-01T02:18:42;17.10;87.10
52575;DHT22;38468;48.114;-1.684;2023-08-01T02:20:43;17.00;86.90
52575;DHT22;38468;48.114;-1.684;2023-08-01T02:22:44;17.10;86.80
52575;DHT22;38468;48.114;-1.684;2023-08-01T02:24:44;17.00;86.80
52575;DHT22;38468;48.114;-1.684;2023-08-01T02:26:45;17.00;86.80
52575;DHT22;38468;48.114;-1.684;2023-08-01T02:28:45;17.00;86.70
52575;DHT22;38468;48.114;-1.684;2023-08-01T02:30:46;17.00;86.70
52575;DHT22;38468;48.114;-1.684;2023-08-01T02:32:47;17.00;86.70
52575;DHT22;38468;48.114;-1.684;2023-08-01T02:34:47;17.00;86.60
52575;DHT22;38468;48.114;-1.684;2023-08-01T02:36:48;16.90;86.60
52575;DHT22;38468;48.114;-1.684;2023-08-01T02:38:49;17.00;86.60
52575;DHT22;38468;48.114;-1.684;2023-08-01T02:40:49;16.90;86.60
52575;DHT22;38468;48.114;-1.684;2023-08-01T02:42:50;16.90;86.60
52575;DHT22;38468;48.114;-1.684;2023-08-01T02:44:50;16.90;86.60
52575;DHT22;38468;48.114;-1.684;2023-08-01T02:46:51;16.90;86.60
52575;DHT22;38468;48.114;-1.684;2023-08-01T02:48:52;16.90;86.70
52575;DHT22;38468;48.114;-1.684;2023-08-01T02:50:52;16.80;86.50
52575;DHT22;38468;48.114;-1.684;2023-08-01T02:52:53;16.80;86.60
52575;DHT22;38468;48.114;-1.684;2023-08-01T02:54:54;16.80;86.50
52575;DHT22;38468;48.114;-1.684;2023-08-01T02:56:54;16.80;86.50
52575;DHT22;38468;48.114;-1.684;2023-08-01T02:58:55;16.70;86.50
52575;DHT22;38468;48.114;-1.684;2023-08-01T03:00:56;16.70;86.30
52575;DHT22;38468;48.114;-1.684;2023-08-01T03:02:56;16.70;86.40
52575;DHT22;38468;48.114;-1.684;2023-08-01T03:04:57;16.70;86.40
52575;DHT22;38468;48.114;-1.684;2023-08-01T03:06:58;16.70;86.50
52575;DHT22;38468;48.114;-1.684;2023-08-01T03:08:59;16.60;86.50
52575;DHT22;38468;48.114;-1.684;2023-08-01T03:11:00;16.60;86.50
52575;DHT22;38468;48.114;-1.684;2023-08-01T03:13:00;16.60;86.30
52575;DHT22;38468;48.114;-1.684;2023-08-01T03:15:01;16.60;86.40
52575;DHT22;38468;48.114;-1.684;2023-08-01T03:17:01;16.50;86.30
52575;DHT22;38468;48.114;-1.684;2023-08-01T03:19:02;16.50;86.30
52575;DHT22;38468;48.114;-1.684;2023-08-01T03:21:05;16.50;86.30
52575;DHT22;38468;48.114;-1.684;2023-08-01T03:23:05;16.50;86.20
52575;DHT22;38468;48.114;-1.684;2023-08-01T03:25:07;16.50;86.30
52575;DHT22;38468;48.114;-1.684;2023-08-01T03:27:08;16.50;86.40
52575;DHT22;38468;48.114;-1.684;2023-08-01T03:29:09;16.50;86.30
52575;DHT22;38468;48.114;-1.684;2023-08-01T03:31:10;16.50;86.40
52575;DHT22;38468;48.114;-1.684;2023-08-01T03:33:10;16.50;86.30
52575;DHT22;38468;48.114;-1.684;2023-08-01T03:35:11;16.50;86.30
52575;DHT22;38468;48.114;-1.684;2023-08-01T03:37:11;16.40;86.20
52575;DHT22;38468;48.114;-1.684;2023-08-01T03:39:14;16.40;86.10
52575;DHT22;38468;48.114;-1.684;2023-08-01T03:41:14;16.40;86.10
52575;DHT22;38468;48.114;-1.684;2023-08-01T03:43:15;16.40;86.10
52575;DHT22;38468;48.114;-1.684;2023-08-01T03:45:16;16.40;86.10
52575;DHT22;38468;48.114;-1.684;2023-08-01T03:47:16;16.30;86.10
52575;DHT22;38468;48.114;-1.684;2023-08-01T03:49:17;16.30;86.20
52575;DHT22;38468;48.114;-1.684;2023-08-01T03:51:18;16.30;86.20
52575;DHT22;38468;48.114;-1.684;2023-08-01T03:53:19;16.30;86.20
52575;DHT22;38468;48.114;-1.684;2023-08-01T03:55:20;16.30;86.20
52575;DHT22;38468;48.114;-1.684;2023-08-01T03:57:21;16.20;86.20
52575;DHT22;38468;48.114;-1.684;2023-08-01T03:59:21;16.20;86.30
52575;DHT22;38468;48.114;-1.684;2023-08-01T04:01:22;16.20;86.30
52575;DHT22;38468;48.114;-1.684;2023-08-01T04:03:23;16.20;86.20
52575;DHT22;38468;48.114;-1.684;2023-08-01T04:05:23;16.20;86.30
52575;DHT22;38468;48.114;-1.684;2023-08-01T04:07:24;16.20;86.30
52575;DHT22;38468;48.114;-1.684;2023-08-01T04:09:25;16.20;86.40
52575;DHT22;38468;48.114;-1.684;2023-08-01T04:11:26;16.20;86.40
52575;DHT22;38468;48.114;-1.684;2023-08-01T04:13:27;16.10;86.40
52575;DHT22;38468;48.114;-1.684;2023-08-01T04:15:28;16.10;86.40
52575;DHT22;38468;48.114;-1.684;2023-08-01T04:17:28;16.20;86.50
52575;DHT22;38468;48.114;-1.684;2023-08-01T04:19:30;16.20;86.60
52575;DHT22;38468;48.114;-1.684;2023-08-01T04:21:30;16.10;86.60
52575;DHT22;38468;48.114;-1.684;2023-08-01T04:23:31;16.10;86.50
52575;DHT22;38468;48.114;-1.684;2023-08-01T04:25:31;16.20;86.50
52575;DHT22;38468;48.114;-1.684;2023-08-01T04:27:32;16.10;86.30
52575;DHT22;38468;48.114;-1.684;2023-08-01T04:29:34;16.10;86.30
52575;DHT22;38468;48.114;-1.684;2023-08-01T04:31:35;16.10;86.30
52575;DHT22;38468;48.114;-1.684;2023-08-01T04:33:35;16.10;86.20
52575;DHT22;38468;48.114;-1.684;2023-08-01T04:35:36;16.00;86.30
52575;DHT22;38468;48.114;-1.684;2023-08-01T04:37:36;16.10;86.30
52575;DHT22;38468;48.114;-1.684;2023-08-01T04:39:37;16.10;86.40
52575;DHT22;38468;48.114;-1.684;2023-08-01T04:41:38;16.20;86.40
52575;DHT22;38468;48.114;-1.684;2023-08-01T04:43:38;16.10;86.50
52575;DHT22;38468;48.114;-1.684;2023-08-01T04:45:39;16.10;86.40
52575;DHT22;38468;48.114;-1.684;2023-08-01T04:47:39;16.10;86.30
52575;DHT22;38468;48.114;-1.684;2023-08-01T04:49:40;16.00;86.10
52575;DHT22;38468;48.114;-1.684;2023-08-01T04:51:41;16.00;86.20
52575;DHT22;38468;48.114;-1.684;2023-08-01T04:53:41;16.00;86.20
52575;DHT22;38468;48.114;-1.684;2023-08-01T04:55:42;16.00;86.20
52575;DHT22;38468;48.114;-1.684;2023-08-01T04:57:43;16.00;86.10
52575;DHT22;38468;48.114;-1.684;2023-08-01T04:59:43;16.00;86.20
52575;DHT22;38468;48.114;-1.684;2023-08-01T05:01:44;16.00;86.30
52575;DHT22;38468;48.114;-1.684;2023-08-01T05:03:44;16.00;85.90
52575;DHT22;38468;48.114;-1.684;2023-08-01T05:05:45;15.90;86.00
52575;DHT22;38468;48.114;-1.684;2023-08-01T05:07:46;15.90;86.00
52575;DHT22;38468;48.114;-1.684;2023-08-01T05:09:46;15.90;86.00
52575;DHT22;38468;48.114;-1.684;2023-08-01T05:11:47;15.90;86.20
52575;DHT22;38468;48.114;-1.684;2023-08-01T05:13:48;15.90;86.10
52575;DHT22;38468;48.114;-1.684;2023-08-01T05:15:49;15.90;86.20
52575;DHT22;38468;48.114;-1.684;2023-08-01T05:17:50;15.90;86.20
52575;DHT22;38468;48.114;-1.684;2023-08-01T05:19:51;15.90;86.30
52575;DHT22;38468;48.114;-1.684;2023-08-01T05:21:51;15.90;86.30
52575;DHT22;38468;48.114;-1.684;2023-08-01T05:23:52;16.00;86.30
52575;DHT22;38468;48.114;-1.684;2023-08-01T05:25:53;16.00;86.50
52575;DHT22;38468;48.114;-1.684;2023-08-01T05:27:53;16.00;86.30
52575;DHT22;38468;48.114;-1.684;2023-08-01T05:29:54;16.00;86.20
52575;DHT22;38468;48.114;-1.684;2023-08-01T05:31:54;16.00;86.30
52575;DHT22;38468;48.114;-1.684;2023-08-01T05:33:55;16.00;86.30
52575;DHT22;38468;48.114;-1.684;2023-08-01T05:35:56;16.00;86.30
52575;DHT22;38468;48.114;-1.684;2023-08-01T05:37:56;16.00;86.30
52575;DHT22;38468;48.114;-1.684;2023-08-01T05:39:57;16.10;86.40
52575;DHT22;38468;48.114;-1.684;2023-08-01T05:41:58;16.10;86.40
52575;DHT22;38468;48.114;-1.684;2023-08-01T05:43:58;16.10;86.10
52575;DHT22;38468;48.114;-1.684;2023-08-01T05:45:59;16.10;86.20
52575;DHT22;38468;48.114;-1.684;2023-08-01T05:48:02;16.10;86.20
52575;DHT22;38468;48.114;-1.684;2023-08-01T05:50:02;16.10;86.40
52575;DHT22;38468;48.114;-1.684;2023-08-01T05:52:03;16.10;86.00
52575;DHT22;38468;48.114;-1.684;2023-08-01T05:54:04;16.10;86.00
52575;DHT22;38468;48.114;-1.684;2023-08-01T05:56:05;16.20;86.30
52575;DHT22;38468;48.114;-1.684;2023-08-01T05:58:05;16.20;86.10
52575;DHT22;38468;48.114;-1.684;2023-08-01T06:00:07;16.20;86.10
52575;DHT22;38468;48.114;-1.684;2023-08-01T06:02:07;16.20;86.10
52575;DHT22;38468;48.114;-1.684;2023-08-01T06:04:08;16.20;86.20
52575;DHT22;38468;48.114;-1.684;2023-08-01T06:06:09;16.20;86.20
52575;DHT22;38468;48.114;-1.684;2023-08-01T06:08:09;16.20;86.10
52575;DHT22;38468;48.114;-1.684;2023-08-01T06:10:10;16.20;86.10
52575;DHT22;38468;48.114;-1.684;2023-08-01T06:12:11;16.20;86.20
52575;DHT22;38468;48.114;-1.684;2023-08-01T06:14:11;16.30;86.30
52575;DHT22;38468;48.114;-1.684;2023-08-01T06:16:12;16.20;86.00
52575;DHT22;38468;48.114;-1.684;2023-08-01T06:18:12;16.20;86.10
52575;DHT22;38468;48.114;-1.684;2023-08-01T06:20:13;16.20;86.00
52575;DHT22;38468;48.114;-1.684;2023-08-01T06:22:14;16.20;86.10
52575;DHT22;38468;48.114;-1.684;2023-08-01T06:24:14;16.30;86.20
52575;DHT22;38468;48.114;-1.684;2023-08-01T06:26:15;16.30;86.10
52575;DHT22;38468;48.114;-1.684;2023-08-01T06:28:16;16.40;86.10
52575;DHT22;38468;48.114;-1.684;2023-08-01T06:30:16;16.40;86.10
52575;DHT22;38468;48.114;-1.684;2023-08-01T06:32:17;16.40;85.90
52575;DHT22;38468;48.114;-1.684;2023-08-01T06:34:18;16.40;85.80
52575;DHT22;38468;48.114;-1.684;2023-08-01T06:36:18;16.40;86.00
52575;DHT22;38468;48.114;-1.684;2023-08-01T06:38:19;16.40;86.00
52575;DHT22;38468;48.114;-1.684;2023-08-01T06:40:19;16.40;85.90
52575;DHT22;38468;48.114;-1.684;2023-08-01T06:42:20;16.50;86.00
52575;DHT22;38468;48.114;-1.684;2023-08-01T06:44:21;16.50;85.90
52575;DHT22;38468;48.114;-1.684;2023-08-01T06:46:22;16.50;85.90
52575;DHT22;38468;48.114;-1.684;2023-08-01T06:48:22;16.50;85.80
52575;DHT22;38468;48.114;-1.684;2023-08-01T06:50:23;16.50;85.60
52575;DHT22;38468;48.114;-1.684;2023-08-01T06:52:23;16.60;85.70
52575;DHT22;38468;48.114;-1.684;2023-08-01T06:54:24;16.50;85.60
52575;DHT22;38468;48.114;-1.684;2023-08-01T06:56:25;16.50;85.60
52575;DHT22;38468;48.114;-1.684;2023-08-01T06:58:25;16.70;85.80
52575;DHT22;38468;48.114;-1.684;2023-08-01T07:00:26;16.70;85.80
52575;DHT22;38468;48.114;-1.684;2023-08-01T07:02:27;16.70;85.60
52575;DHT22;38468;48.114;-1.684;2023-08-01T07:04:27;16.70;85.20
52575;DHT22;38468;48.114;-1.684;2023-08-01T07:06:28;16.80;85.40
52575;DHT22;38468;48.114;-1.684;2023-08-01T07:08:29;16.70;85.30
52575;DHT22;38468;48.114;-1.684;2023-08-01T07:10:30;16.70;85.30
52575;DHT22;38468;48.114;-1.684;2023-08-01T07:12:30;16.70;85.20
52575;DHT22;38468;48.114;-1.684;2023-08-01T07:14:31;16.70;85.20
52575;DHT22;38468;48.114;-1.684;2023-08-01T07:16:31;16.70;85.10
52575;DHT22;38468;48.114;-1.684;2023-08-01T07:18:32;16.70;85.10
52575;DHT22;38468;48.114;-1.684;2023-08-01T07:20:33;16.80;85.30
52575;DHT22;38468;48.114;-1.684;2023-08-01T07:22:33;16.90;85.10
52575;DHT22;38468;48.114;-1.684;2023-08-01T07:24:34;16.90;84.60
52575;DHT22;38468;48.114;-1.684;2023-08-01T07:26:35;17.00;84.80
52575;DHT22;38468;48.114;-1.684;2023-08-01T07:28:35;17.00;84.60
52575;DHT22;38468;48.114;-1.684;2023-08-01T07:30:36;17.10;84.60
52575;DHT22;38468;48.114;-1.684;2023-08-01T07:32:37;17.20;84.70
52575;DHT22;38468;48.114;-1.684;2023-08-01T07:34:38;17.20;83.90
52575;DHT22;38468;48.114;-1.684;2023-08-01T07:36:39;17.20;83.40
52575;DHT22;38468;48.114;-1.684;2023-08-01T07:38:39;17.20;83.70
52575;DHT22;38468;48.114;-1.684;2023-08-01T07:40:40;17.30;83.90
52575;DHT22;38468;48.114;-1.684;2023-08-01T07:42:40;17.40;83.70
52575;DHT22;38468;48.114;-1.684;2023-08-01T07:44:41;17.50;83.20
52575;DHT22;38468;48.114;-1.684;2023-08-01T07:46:42;17.40;82.70
52575;DHT22;38468;48.114;-1.684;2023-08-01T07:48:42;17.50;83.20
52575;DHT22;38468;48.114;-1.684;2023-08-01T07:50:43;17.50;82.90
52575;DHT22;38468;48.114;-1.684;2023-08-01T07:52:44;17.60;83.00
52575;DHT22;38468;48.114;-1.684;2023-08-01T07:54:44;17.70;83.20
52575;DHT22;38468;48.114;-1.684;2023-08-01T07:56:45;17.80;82.90
52575;DHT22;38468;48.114;-1.684;2023-08-01T07:58:49;17.80;82.00
52575;DHT22;38468;48.114;-1.684;2023-08-01T08:00:49;17.90;82.30
52575;DHT22;38468;48.114;-1.684;2023-08-01T08:02:50;18.00;82.60
52575;DHT22;38468;48.114;-1.684;2023-08-01T08:04:50;18.00;81.70
52575;DHT22;38468;48.114;-1.684;2023-08-01T08:06:51;18.10;81.70
52575;DHT22;38468;48.114;-1.684;2023-08-01T08:08:52;18.10;81.30
52575;DHT22;38468;48.114;-1.684;2023-08-01T08:10:53;18.20;81.10
52575;DHT22;38468;48.114;-1.684;2023-08-01T08:12:54;18.30;81.50
52575;DHT22;38468;48.114;-1.684;2023-08-01T08:14:54;18.40;81.60
52575;DHT22;38468;48.114;-1.684;2023-08-01T08:16:55;18.40;81.50
52575;DHT22;38468;48.114;-1.684;2023-08-01T08:18:55;18.40;80.40
52575;DHT22;38468;48.114;-1.684;2023-08-01T08:20:56;18.20;79.80
52575;DHT22;38468;48.114;-1.684;2023-08-01T08:22:57;18.00;79.80
52575;DHT22;38468;48.114;-1.684;2023-08-01T08:24:58;18.00;80.10
52575;DHT22;38468;48.114;-1.684;2023-08-01T08:26:59;18.20;80.50
52575;DHT22;38468;48.114;-1.684;2023-08-01T08:28:59;18.30;79.60
52575;DHT22;38468;48.114;-1.684;2023-08-01T08:31:00;18.40;80.20
52575;DHT22;38468;48.114;-1.684;2023-08-01T08:33:06;18.50;79.60
52575;DHT22;38468;48.114;-1.684;2023-08-01T08:35:07;18.70;79.80
52575;DHT22;38468;48.114;-1.684;2023-08-01T08:37:08;18.70;78.30
52575;DHT22;38468;48.114;-1.684;2023-08-01T08:39:08;18.70;78.40
52575;DHT22;38468;48.114;-1.684;2023-08-01T08:41:11;18.90;79.20
52575;DHT22;38468;48.114;-1.684;2023-08-01T08:43:14;19.00;78.50
52575;DHT22;38468;48.114;-1.684;2023-08-01T08:45:19;19.10;77.90
52575;DHT22;38468;48.114;-1.684;2023-08-01T08:47:25;19.00;77.70
52575;DHT22;38468;48.114;-1.684;2023-08-01T08:49:26;19.10;78.40
52575;DHT22;38468;48.114;-1.684;2023-08-01T08:51:28;19.10;78.00
52575;DHT22;38468;48.114;-1.684;2023-08-01T08:53:30;19.20;78.40
52575;DHT22;38468;48.114;-1.684;2023-08-01T08:55:31;19.20;77.60
52575;DHT22;38468;48.114;-1.684;2023-08-01T08:57:32;19.10;77.70
52575;DHT22;38468;48.114;-1.684;2023-08-01T08:59:33;19.10;77.70
52575;DHT22;38468;48.114;-1.684;2023-08-01T09:01:35;19.00;77.30
52575;DHT22;38468;48.114;-1.684;2023-08-01T09:03:36;18.90;77.60
52575;DHT22;38468;48.114;-1.684;2023-08-01T09:06:02;18.80;77.70
52575;DHT22;38468;48.114;-1.684;2023-08-01T09:08:07;18.80;77.90
52575;DHT22;38468;48.114;-1.684;2023-08-01T09:10:12;18.90;77.90
52575;DHT22;38468;48.114;-1.684;2023-08-01T09:12:13;18.80;77.90
52575;DHT22;38468;48.114;-1.684;2023-08-01T09:14:13;18.80;77.10
52575;DHT22;38468;48.114;-1.684;2023-08-01T09:16:15;18.70;77.20
52575;DHT22;38468;48.114;-1.684;2023-08-01T09:18:21;18.70;77.50
52575;DHT22;38468;48.114;-1.684;2023-08-01T09:20:21;18.50;77.50
52575;DHT22;38468;48.114;-1.684;2023-08-01T09:22:22;18.50;77.80
52575;DHT22;38468;48.114;-1.684;2023-08-01T09:24:23;18.50;78.10
52575;DHT22;38468;48.114;-1.684;2023-08-01T09:26:23;18.50;77.90
52575;DHT22;38468;48.114;-1.684;2023-08-01T09:28:24;18.60;78.30
52575;DHT22;38468;48.114;-1.684;2023-08-01T09:30:25;18.60;78.60
52575;DHT22;38468;48.114;-1.684;2023-08-01T09:32:26;18.50;78.30
52575;DHT22;38468;48.114;-1.684;2023-08-01T09:34:27;18.70;78.80
52575;DHT22;38468;48.114;-1.684;2023-08-01T09:36:28;18.70;78.80
52575;DHT22;38468;48.114;-1.684;2023-08-01T09:38:34;18.60;78.40
52575;DHT22;38468;48.114;-1.684;2023-08-01T09:40:39;18.60;78.80
52575;DHT22;38468;48.114;-1.684;2023-08-01T09:42:43;18.70;78.80
52575;DHT22;38468;48.114;-1.684;2023-08-01T09:44:45;18.60;78.60
52575;DHT22;38468;48.114;-1.684;2023-08-01T09:47:00;18.60;78.90
52575;DHT22;38468;48.114;-1.684;2023-08-01T09:49:08;18.70;79.00
52575;DHT22;38468;48.114;-1.684;2023-08-01T09:51:17;18.80;78.70
52575;DHT22;38468;48.114;-1.684;2023-08-01T09:53:18;18.80;77.30
52575;DHT22;38468;48.114;-1.684;2023-08-01T09:55:31;18.90;77.20
52575;DHT22;38468;48.114;-1.684;2023-08-01T09:57:34;19.00;77.40
52575;DHT22;38468;48.114;-1.684;2023-08-01T09:59:38;19.00;76.00
52575;DHT22;38468;48.114;-1.684;2023-08-01T10:01:41;19.10;75.70
52575;DHT22;38468;48.114;-1.684;2023-08-01T10:03:46;19.30;75.40
52575;DHT22;38468;48.114;-1.684;2023-08-01T10:05:48;19.50;75.40
52575;DHT22;38468;48.114;-1.684;2023-08-01T10:07:50;19.50;74.20
52575;DHT22;38468;48.114;-1.684;2023-08-01T10:09:58;19.60;74.10
52575;DHT22;38468;48.114;-1.684;2023-08-01T10:12:00;19.60;73.10
52575;DHT22;38468;48.114;-1.684;2023-08-01T10:14:03;19.70;73.60
52575;DHT22;38468;48.114;-1.684;2023-08-01T10:16:04;19.90;73.40
52575;DHT22;38468;48.114;-1.684;2023-08-01T10:18:05;19.90;72.90
52575;DHT22;38468;48.114;-1.684;2023-08-01T10:20:07;20.00;72.50
52575;DHT22;38468;48.114;-1.684;2023-08-01T10:22:08;20.00;71.80
52575;DHT22;38468;48.114;-1.684;2023-08-01T10:24:10;20.20;73.10
52575;DHT22;38468;48.114;-1.684;2023-08-01T10:26:12;20.30;72.20
52575;DHT22;38468;48.114;-1.684;2023-08-01T10:28:13;20.40;72.60
52575;DHT22;38468;48.114;-1.684;2023-08-01T10:30:14;20.50;72.10
52575;DHT22;38468;48.114;-1.684;2023-08-01T10:32:15;20.60;71.50
52575;DHT22;38468;48.114;-1.684;2023-08-01T10:34:18;20.50;70.00
52575;DHT22;38468;48.114;-1.684;2023-08-01T10:36:25;20.50;71.00
52575;DHT22;38468;48.114;-1.684;2023-08-01T10:38:29;20.40;70.40
52575;DHT22;38468;48.114;-1.684;2023-08-01T10:40:41;20.50;70.70
52575;DHT22;38468;48.114;-1.684;2023-08-01T10:42:44;20.50;70.80
52575;DHT22;38468;48.114;-1.684;2023-08-01T10:44:45;20.50;70.10
52575;DHT22;38468;48.114;-1.684;2023-08-01T10:47:00;20.40;71.00
52575;DHT22;38468;48.114;-1.684;2023-08-01T10:49:00;20.40;71.30
52575;DHT22;38468;48.114;-1.684;2023-08-01T10:51:01;20.30;71.40
52575;DHT22;38468;48.114;-1.684;2023-08-01T10:53:08;20.30;72.00
52575;DHT22;38468;48.114;-1.684;2023-08-01T10:55:10;20.40;71.80
52575;DHT22;38468;48.114;-1.684;2023-08-01T10:57:16;20.10;71.50
52575;DHT22;38468;48.114;-1.684;2023-08-01T10:59:21;20.10;72.30
52575;DHT22;38468;48.114;-1.684;2023-08-01T11:01:22;20.20;72.50
52575;DHT22;38468;48.114;-1.684;2023-08-01T11:03:42;20.20;72.60
52575;DHT22;38468;48.114;-1.684;2023-08-01T11:05:44;20.20;72.40
52575;DHT22;38468;48.114;-1.684;2023-08-01T11:08:01;20.00;72.00
52575;DHT22;38468;48.114;-1.684;2023-08-01T11:12:07;20.00;72.20
52575;DHT22;38468;48.114;-1.684;2023-08-01T11:14:08;20.00;72.50
52575;DHT22;38468;48.114;-1.684;2023-08-01T11:16:11;20.00;72.40
52575;DHT22;38468;48.114;-1.684;2023-08-01T11:18:12;20.10;72.10
52575;DHT22;38468;48.114;-1.684;2023-08-01T11:20:14;20.10;71.60
52575;DHT22;38468;48.114;-1.684;2023-08-01T11:22:15;20.20;71.80
52575;DHT22;38468;48.114;-1.684;2023-08-01T11:24:17;20.30;72.00
52575;DHT22;38468;48.114;-1.684;2023-08-01T11:26:17;20.30;71.70
52575;DHT22;38468;48.114;-1.684;2023-08-01T11:28:18;20.40;71.80
52575;DHT22;38468;48.114;-1.684;2023-08-01T11:30:19;20.50;71.30
52575;DHT22;38468;48.114;-1.684;2023-08-01T11:32:19;20.50;71.70
52575;DHT22;38468;48.114;-1.684;2023-08-01T11:34:21;20.50;71.50
52575;DHT22;38468;48.114;-1.684;2023-08-01T11:36:24;20.50;71.50
52575;DHT22;38468;48.114;-1.684;2023-08-01T11:38:26;20.40;71.50
52575;DHT22;38468;48.114;-1.684;2023-08-01T11:40:29;20.40;71.40
52575;DHT22;38468;48.114;-1.684;2023-08-01T11:42:31;20.40;70.90
52575;DHT22;38468;48.114;-1.684;2023-08-01T11:44:33;20.30;70.80
52575;DHT22;38468;48.114;-1.684;2023-08-01T11:46:35;20.10;71.70
52575;DHT22;38468;48.114;-1.684;2023-08-01T11:48:38;20.10;72.10
52575;DHT22;38468;48.114;-1.684;2023-08-01T11:50:39;20.30;72.00
52575;DHT22;38468;48.114;-1.684;2023-08-01T11:52:40;20.30;71.80
52575;DHT22;38468;48.114;-1.684;2023-08-01T11:54:45;20.40;72.00
52575;DHT22;38468;48.114;-1.684;2023-08-01T11:56:46;20.30;71.80
52575;DHT22;38468;48.114;-1.684;2023-08-01T11:58:46;20.50;71.80
52575;DHT22;38468;48.114;-1.684;2023-08-01T12:00:47;20.50;71.90
52575;DHT22;38468;48.114;-1.684;2023-08-01T12:02:47;20.50;72.00
52575;DHT22;38468;48.114;-1.684;2023-08-01T12:04:49;20.50;71.90
52575;DHT22;38468;48.114;-1.684;2023-08-01T12:06:49;20.40;71.80
52575;DHT22;38468;48.114;-1.684;2023-08-01T12:08:52;20.20;72.30
52575;DHT22;38468;48.114;-1.684;2023-08-01T12:10:52;20.10;72.50
52575;DHT22;38468;48.114;-1.684;2023-08-01T12:12:53;20.30;73.00
52575;DHT22;38468;48.114;-1.684;2023-08-01T12:14:54;20.10;73.40
52575;DHT22;38468;48.114;-1.684;2023-08-01T12:16:55;20.20;73.50
52575;DHT22;38468;48.114;-1.684;2023-08-01T12:18:57;20.30;73.40
52575;DHT22;38468;48.114;-1.684;2023-08-01T12:20:57;20.40;73.40
52575;DHT22;38468;48.114;-1.684;2023-08-01T12:22:58;20.40;73.30
52575;DHT22;38468;48.114;-1.684;2023-08-01T12:25:00;20.20;73.50
52575;DHT22;38468;48.114;-1.684;2023-08-01T12:27:01;20.20;73.70
52575;DHT22;38468;48.114;-1.684;2023-08-01T12:29:01;20.20;73.90
52575;DHT22;38468;48.114;-1.684;2023-08-01T12:31:03;20.10;74.10
52575;DHT22;38468;48.114;-1.684;2023-08-01T12:33:04;20.00;74.80
52575;DHT22;38468;48.114;-1.684;2023-08-01T12:35:05;20.00;75.20
52575;DHT22;38468;48.114;-1.684;2023-08-01T12:37:05;20.00;75.30
52575;DHT22;38468;48.114;-1.684;2023-08-01T12:39:06;20.00;75.60